Time;durP1;ratioP1;P1;durP2;ratioP2;P2;SDS_P1;SDS_P2;PMS_P1;PMS_P2;Temp;Humidity;BMP_temperature;BMP_pressure;BME280_temperature;BME280_humidity;BME280_pressure;Samples;Min_cycle;Max_cycle;Signal;HPM_P1;HPM_P2
2023/03/21 00:00:24;;;;;;;23.75;17.88;;;;;;;9.24;100.00;101573.69;5120997;27;20619;-57
2023/03/21 00:02:49;;;;;;;24.60;18.20;;;;;;;9.19;100.00;101565.06;5125604;27;20721;-57
2023/03/21 00:05:15;;;;;;;26.63;18.05;;;;;;;9.15;100.00;101558.16;5079916;27;20470;-57
2023/03/21 00:07:40;;;;;;;22.88;17.95;;;;;;;9.19;100.00;101563.25;5123592;27;20034;-56
2023/03/21 00:10:06;;;;;;;21.83;18.25;;;;;;;9.17;100.00;101558.94;5126180;27;20032;-57
2023/03/21 00:12:36;;;;;;;22.88;18.42;;;;;;;9.18;100.00;101555.38;5107078;27;20363;-57
2023/03/21 00:15:07;;;;;;;21.60;16.40;;;;;;;9.21;100.00;101552.59;5123499;27;20023;-56
2023/03/21 00:17:32;;;;;;;18.92;17.00;;;;;;;9.24;100.00;101549.78;5123357;27;20865;-56
2023/03/21 00:19:59;;;;;;;25.00;16.85;;;;;;;9.21;100.00;101547.28;5105639;27;20023;-56
2023/03/21 00:22:26;;;;;;;21.98;17.48;;;;;;;9.22;100.00;101539.22;5124300;27;20039;-56
2023/03/21 00:24:52;;;;;;;19.02;15.50;;;;;;;9.22;100.00;101541.88;5108832;27;20050;-56
2023/03/21 00:27:20;;;;;;;19.05;15.73;;;;;;;9.21;100.00;101537.53;5131768;27;20065;-56
2023/03/21 00:29:48;;;;;;;20.05;16.83;;;;;;;9.24;100.00;101540.03;5109069;27;20027;-57
2023/03/21 00:32:14;;;;;;;25.52;17.30;;;;;;;9.25;100.00;101535.59;5104451;28;20034;-57
2023/03/21 00:34:41;;;;;;;19.45;15.77;;;;;;;9.17;100.00;101517.34;5102349;27;20161;-57
2023/03/21 00:37:07;;;;;;;21.45;16.77;;;;;;;9.23;100.00;101527.69;5129829;27;20037;-57
2023/03/21 00:39:34;;;;;;;18.25;16.45;;;;;;;9.24;100.00;101533.88;5154167;27;20396;-57
2023/03/21 00:42:00;;;;;;;23.67;16.50;;;;;;;9.23;99.79;101517.06;5116238;27;20370;-57
2023/03/21 00:44:25;;;;;;;23.13;15.55;;;;;;;9.26;99.74;101524.03;5121027;27;20039;-57
2023/03/21 00:46:51;;;;;;;18.95;15.23;;;;;;;9.24;99.76;101521.44;5122517;27;20019;-57
2023/03/21 00:49:19;;;;;;;18.70;14.25;;;;;;;9.20;99.12;101511.03;5127519;27;20027;-57
2023/03/21 00:51:44;;;;;;;20.17;14.48;;;;;;;9.20;99.02;101498.63;5135223;27;20461;-56
2023/03/21 00:54:11;;;;;;;22.67;15.20;;;;;;;9.25;99.17;101512.53;5136251;27;20038;-57
2023/03/21 00:56:39;;;;;;;18.55;14.52;;;;;;;9.30;98.70;101507.88;5125218;27;20038;-57
2023/03/21 00:59:04;;;;;;;17.70;14.25;;;;;;;9.27;98.14;101502.72;5124079;27;20030;-57
2023/03/21 01:01:30;;;;;;;21.80;14.48;;;;;;;9.26;98.87;101490.38;5116468;27;20027;-57
2023/03/21 01:04:06;;;;;;;19.38;15.10;;;;;;;9.32;97.98;101494.53;5116047;27;20027;-57
2023/03/21 01:06:38;;;;;;;29.17;15.48;;;;;;;9.26;97.84;101487.72;5129875;27;20083;-57
2023/03/21 01:09:04;;;;;;;22.35;14.00;;;;;;;9.30;97.92;101491.09;5124328;27;20052;-57
2023/03/21 01:11:30;;;;;;;23.27;15.15;;;;;;;9.32;97.97;101476.84;5128299;27;20027;-56
2023/03/21 01:13:56;;;;;;;18.08;13.90;;;;;;;9.37;97.53;101484.56;5108503;27;20030;-57
2023/03/21 01:16:21;;;;;;;19.70;14.20;;;;;;;9.35;97.05;101481.09;5124547;27;20022;-57
2023/03/21 01:18:50;;;;;;;17.85;13.70;;;;;;;9.37;96.77;101475.75;5130058;27;20035;-56
2023/03/21 01:21:15;;;;;;;19.83;13.98;;;;;;;9.34;97.17;101471.44;5131224;27;20031;-56
2023/03/21 01:23:45;;;;;;;18.42;13.30;;;;;;;9.31;95.74;101461.81;5126545;27;20405;-57
2023/03/21 01:26:11;;;;;;;15.30;12.75;;;;;;;9.33;95.74;101465.28;5105959;27;20023;-57
2023/03/21 01:28:39;;;;;;;21.30;12.75;;;;;;;9.35;95.88;101474.94;5118930;27;20026;-56
2023/03/21 01:31:05;;;;;;;18.75;12.63;;;;;;;9.37;95.28;101470.44;5103327;27;20489;-57
2023/03/21 01:33:33;;;;;;;17.95;12.60;;;;;;;9.32;95.80;101465.34;5101015;27;20113;-57
2023/03/21 01:35:59;;;;;;;18.30;12.75;;;;;;;9.35;95.72;101459.88;5101507;27;20019;-57
2023/03/21 01:38:25;;;;;;;22.10;13.30;;;;;;;9.35;95.65;101466.97;5096239;27;20055;-57
2023/03/21 01:40:51;;;;;;;21.55;12.10;;;;;;;9.36;95.24;101458.97;5126745;27;20066;-57
2023/03/21 01:43:30;;;;;;;18.00;13.30;;;;;;;9.36;95.65;101461.63;5124074;27;20442;-56
2023/03/21 01:46:01;;;;;;;17.58;12.77;;;;;;;9.33;95.62;101456.44;5130003;27;20019;-57
2023/03/21 01:48:28;;;;;;;19.35;13.45;;;;;;;9.36;95.77;101448.34;5119846;27;20036;-56
2023/03/21 01:50:55;;;;;;;17.90;14.02;;;;;;;9.34;95.50;101455.50;5104538;28;20407;-56
2023/03/21 01:53:27;;;;;;;17.10;13.25;;;;;;;9.35;95.66;101456.38;5097509;27;20069;-56
2023/03/21 01:55:53;;;;;;;17.23;13.52;;;;;;;9.33;95.96;101452.00;5121351;27;20097;-57
2023/03/21 01:58:18;;;;;;;19.52;13.65;;;;;;;9.32;96.01;101452.94;5106135;27;20504;-57
2023/03/21 02:00:49;;;;;;;17.48;12.52;;;;;;;9.33;96.06;101451.16;5116469;27;20114;-57
2023/03/21 02:03:15;;;;;;;18.52;12.70;;;;;;;9.32;95.71;101452.06;5121802;27;20508;-56
2023/03/21 02:05:55;;;;;;;17.63;12.88;;;;;;;9.31;96.28;101440.59;5104659;27;20530;-57
2023/03/21 02:08:22;;;;;;;;;;;;;;;9.40;95.60;101441.09;5127029;27;20055;-56
2023/03/21 02:10:50;;;;;;;18.02;13.18;;;;;;;9.27;95.56;101431.06;5116920;27;20010;-56
2023/03/21 02:13:16;;;;;;;18.67;12.43;;;;;;;9.28;95.91;101427.47;5122003;27;20031;-57
2023/03/21 02:16:20;;;;;;;22.23;12.40;;;;;;;9.33;96.18;101429.91;5121069;27;20542;-57
2023/03/21 02:19:05;;;;;;;21.02;13.55;;;;;;;9.26;96.04;101424.00;5079695;27;20038;-56
2023/03/21 02:21:49;;;;;;;19.88;13.13;;;;;;;9.25;96.26;101424.09;5100194;28;20023;-56
2023/03/21 02:24:23;;;;;;;19.17;13.38;;;;;;;9.26;96.39;101415.19;5130613;27;20046;-57
2023/03/21 02:27:10;;;;;;;18.30;12.60;;;;;;;9.33;96.23;101414.84;5128675;27;20607;-57
2023/03/21 02:29:56;;;;;;;17.33;12.18;;;;;;;9.27;96.46;101417.78;5120650;27;20417;-57
2023/03/21 02:32:40;;;;;;;16.60;13.70;;;;;;;9.20;96.60;101411.03;5121813;27;20103;-57
2023/03/21 02:35:21;;;;;;;21.10;12.93;;;;;;;9.23;96.20;101404.72;5125605;27;20023;-56
2023/03/21 02:38:09;;;;;;;15.60;13.10;;;;;;;9.22;96.52;101401.22;5131089;28;20080;-57
2023/03/21 02:41:02;;;;;;;21.35;13.55;;;;;;;9.28;96.49;101408.88;5131837;28;20469;-57
2023/03/21 02:43:43;;;;;;;16.45;13.60;;;;;;;9.27;95.97;101401.00;5120909;27;20426;-57
2023/03/21 02:46:15;;;;;;;24.02;13.65;;;;;;;9.20;95.73;101395.13;5102605;28;20032;-57
2023/03/21 02:48:49;;;;;;;18.77;13.77;;;;;;;9.21;96.10;101394.19;5122238;27;20031;-57
2023/03/21 02:51:18;;;;;;;20.98;14.60;;;;;;;9.21;95.87;101393.34;5121976;27;20015;-57
2023/03/21 02:53:50;;;;;;;19.30;14.48;;;;;;;9.19;96.24;101388.09;5123350;27;20079;-57
2023/03/21 02:56:18;;;;;;;18.08;13.35;;;;;;;9.18;95.99;101391.69;5122092;27;20027;-57
2023/03/21 02:58:45;;;;;;;16.65;13.25;;;;;;;9.18;95.88;101390.84;5120638;27;20031;-57
2023/03/21 03:01:11;;;;;;;18.80;14.05;;;;;;;9.16;96.55;101380.28;5097071;27;20028;-57
2023/03/21 03:03:38;;;;;;;16.10;14.43;;;;;;;9.13;96.81;101383.09;5116735;27;20390;-57
2023/03/21 03:06:15;;;;;;;20.83;14.13;;;;;;;9.13;97.17;101385.75;5131951;27;20050;-56
2023/03/21 03:09:15;;;;;;;21.48;14.65;;;;;;;9.19;97.18;101380.13;5106806;27;20027;-57
2023/03/21 03:11:42;;;;;;;;;;;;;;;9.26;96.76;101378.88;5129327;27;20118;-56
2023/03/21 03:14:17;;;;;;;23.80;13.77;;;;;;;9.17;96.96;101376.69;5122930;27;19958;-57
2023/03/21 03:17:21;;;;;;;18.33;14.38;;;;;;;9.21;97.29;101372.97;5132902;27;20023;-57
2023/03/21 03:19:52;;;;;;;20.05;13.63;;;;;;;9.14;97.56;101374.19;5097423;27;20045;-56
2023/03/21 03:22:25;;;;;;;18.40;14.23;;;;;;;9.09;98.01;101362.97;5124403;27;20379;-56
2023/03/21 03:25:00;;;;;;;20.90;14.05;;;;;;;9.06;97.90;101365.75;5124758;27;20441;-57
2023/03/21 03:27:32;;;;;;;21.73;14.10;;;;;;;9.05;98.10;101364.88;5134204;27;20030;-56
2023/03/21 03:30:00;;;;;;;20.90;13.98;;;;;;;8.99;98.02;101349.25;5115463;27;20035;-57
2023/03/21 03:32:43;;;;;;;20.77;13.70;;;;;;;9.08;98.08;101364.72;5120103;27;20015;-57
2023/03/21 03:35:12;;;;;;;19.42;14.70;;;;;;;9.03;97.93;101363.22;5110437;27;20126;-56
2023/03/21 03:37:40;;;;;;;19.73;13.77;;;;;;;8.99;98.57;101353.72;5111723;27;20066;-57
2023/03/21 03:40:08;;;;;;;21.88;14.38;;;;;;;8.99;98.30;101359.00;5105410;27;20035;-55
2023/03/21 03:42:37;;;;;;;22.30;13.30;;;;;;;9.00;98.46;101361.63;5124922;27;20105;-56
2023/03/21 03:45:09;;;;;;;19.48;14.52;;;;;;;8.95;98.85;101354.81;5120983;27;20051;-57
2023/03/21 03:47:34;;;;;;;20.98;14.85;;;;;;;9.00;99.49;101355.41;5125916;27;20435;-57
2023/03/21 03:50:09;;;;;;;20.80;13.95;;;;;;;8.98;99.83;101355.50;5122299;27;20019;-57
2023/03/21 03:52:44;;;;;;;21.80;14.88;;;;;;;8.94;100.00;101353.94;5142019;27;20050;-56
2023/03/21 03:55:15;;;;;;;20.13;14.57;;;;;;;8.96;99.44;101352.06;5097880;27;20035;-57
2023/03/21 03:57:43;;;;;;;19.23;14.20;;;;;;;8.96;99.53;101349.41;5121656;27;20474;-56
2023/03/21 04:00:11;;;;;;;20.52;14.25;;;;;;;8.91;99.50;101356.72;5114507;27;20034;-56
2023/03/21 04:02:37;;;;;;;20.42;14.65;;;;;;;8.89;99.99;101340.03;5106605;27;20469;-57
2023/03/21 04:05:04;;;;;;;21.40;15.48;;;;;;;8.92;99.09;101345.19;5112725;27;20038;-57
2023/03/21 04:07:30;;;;;;;19.83;14.68;;;;;;;8.90;99.45;101338.25;5108668;27;20027;-57
2023/03/21 04:09:56;;;;;;;22.00;15.25;;;;;;;8.94;98.93;101337.16;5123944;27;20035;-57
2023/03/21 04:12:22;;;;;;;19.73;15.07;;;;;;;8.93;98.73;101336.28;5132569;27;20019;-57
2023/03/21 04:14:48;;;;;;;21.08;14.68;;;;;;;8.97;98.66;101337.88;5120833;27;20034;-56
2023/03/21 04:17:14;;;;;;;21.13;15.30;;;;;;;8.99;98.12;101343.09;5114259;27;20478;-56
2023/03/21 04:19:44;;;;;;;21.88;15.07;;;;;;;8.98;98.24;101339.59;5096824;27;20467;-56
2023/03/21 04:22:10;;;;;;;25.35;14.25;;;;;;;8.98;98.45;101336.09;5110881;27;20097;-56
2023/03/21 04:24:36;;;;;;;19.80;14.32;;;;;;;8.95;98.08;101329.13;5108036;28;20073;-57
2023/03/21 04:27:02;;;;;;;19.75;14.70;;;;;;;8.92;98.25;101325.78;5117985;27;20478;-57
2023/03/21 04:29:28;;;;;;;20.63;14.88;;;;;;;8.88;97.83;101322.38;5130702;27;20038;-57
2023/03/21 04:31:54;;;;;;;24.70;15.43;;;;;;;8.98;98.67;101325.47;5114668;27;20019;-57
2023/03/21 04:34:22;;;;;;;22.50;15.48;;;;;;;8.93;98.34;101322.19;5117930;27;20107;-57
2023/03/21 04:36:49;;;;;;;19.77;14.77;;;;;;;8.98;97.91;101325.47;5123103;27;20389;-56
2023/03/21 04:39:16;;;;;;;25.20;15.73;;;;;;;8.96;97.92;101317.56;5131741;27;20030;-57
2023/03/21 04:41:43;;;;;;;21.42;14.45;;;;;;;8.95;97.78;101313.22;5132999;27;20470;-57
2023/03/21 04:44:10;;;;;;;24.88;14.82;;;;;;;8.97;97.97;101308.69;5126154;27;20041;-57
2023/03/21 04:46:36;;;;;;;21.65;14.35;;;;;;;8.97;97.45;101310.47;5126916;27;20102;-56
2023/03/21 04:49:03;;;;;;;24.15;14.50;;;;;;;8.97;97.44;101307.81;5111887;27;20027;-57
2023/03/21 04:51:28;;;;;;;23.30;16.08;;;;;;;8.98;97.41;101307.75;5127618;27;20016;-57
2023/03/21 04:53:56;;;;;;;19.75;15.27;;;;;;;8.99;97.49;101298.00;5119705;27;20031;-57
2023/03/21 04:56:31;;;;;;;22.98;14.52;;;;;;;8.96;96.95;101291.03;5127741;27;20035;-57
2023/03/21 04:59:05;;;;;;;23.00;14.98;;;;;;;9.01;97.02;101298.78;5127822;27;20027;-57
2023/03/21 05:01:31;;;;;;;28.25;15.45;;;;;;;9.00;96.68;101302.34;5115316;27;20038;-56
2023/03/21 05:03:57;;;;;;;18.77;14.55;;;;;;;9.00;96.85;101295.28;5117035;27;20032;-57
2023/03/21 05:06:23;;;;;;;21.58;14.73;;;;;;;9.00;96.92;101297.94;5123750;27;20092;-57
2023/03/21 05:08:49;;;;;;;20.63;14.55;;;;;;;8.97;96.89;101286.59;5123253;27;20473;-56
2023/03/21 05:11:14;;;;;;;23.55;15.38;;;;;;;9.02;96.68;101297.84;5109939;27;20037;-57
2023/03/21 05:13:40;;;;;;;20.60;15.07;;;;;;;9.00;96.37;101289.09;5129385;27;20389;-56
2023/03/21 05:16:06;;;;;;;19.65;14.48;;;;;;;9.02;97.29;101290.75;5093253;27;20466;-56
2023/03/21 05:18:37;;;;;;;21.92;14.90;;;;;;;9.04;96.85;101291.53;5121237;27;20023;-56
2023/03/21 05:21:09;;;;;;;25.10;14.38;;;;;;;9.07;96.42;101290.53;5112333;27;20460;-57
2023/03/21 05:23:37;;;;;;;24.70;15.13;;;;;;;9.03;96.40;101292.47;5131043;27;20079;-57
2023/03/21 05:26:11;;;;;;;19.92;14.27;;;;;;;8.98;96.90;101285.69;5128191;27;20095;-57
2023/03/21 05:28:38;;;;;;;20.42;13.75;;;;;;;9.01;96.60;101293.47;5129808;27;20110;-57
2023/03/21 05:31:05;;;;;;;26.38;14.90;;;;;;;8.99;96.86;101277.63;5103239;27;20466;-57
2023/03/21 05:33:31;;;;;;;22.83;13.60;;;;;;;9.03;96.75;101281.88;5114589;27;20035;-57
2023/03/21 05:35:59;;;;;;;17.88;13.75;;;;;;;9.03;96.78;101288.94;5121675;27;20088;-56
2023/03/21 05:38:27;;;;;;;21.42;14.48;;;;;;;9.06;97.15;101283.50;5118510;27;20036;-57
2023/03/21 05:40:53;;;;;;;22.27;14.00;;;;;;;9.04;96.70;101288.03;5120401;27;20035;-57
2023/03/21 05:43:18;;;;;;;22.05;14.10;;;;;;;9.02;96.44;101273.97;5113307;27;20090;-57
2023/03/21 05:45:43;;;;;;;22.95;14.00;;;;;;;9.07;96.06;101288.72;5108041;28;20027;-56
2023/03/21 05:48:09;;;;;;;24.88;15.02;;;;;;;9.05;96.36;101287.06;5096105;28;20024;-56
2023/03/21 05:50:35;;;;;;;22.27;15.05;;;;;;;9.04;96.83;101290.69;5146508;27;20394;-57
2023/03/21 05:53:00;;;;;;;21.55;13.57;;;;;;;9.05;96.22;101290.59;5131817;27;20411;-57
2023/03/21 05:55:25;;;;;;;22.33;13.80;;;;;;;9.04;96.13;101285.38;5129600;27;20031;-57
2023/03/21 05:57:51;;;;;;;19.08;13.25;;;;;;;9.08;95.85;101289.56;5125750;27;20061;-56
2023/03/21 06:00:17;;;;;;;18.63;14.40;;;;;;;9.09;96.23;101291.31;5096739;28;20080;-57
2023/03/21 06:02:45;;;;;;;23.05;14.60;;;;;;;9.06;95.85;101292.31;5125512;27;20035;-56
2023/03/21 06:05:11;;;;;;;19.48;12.65;;;;;;;9.10;95.63;101282.41;5121317;27;20118;-57
2023/03/21 06:07:36;;;;;;;22.90;13.93;;;;;;;9.02;96.05;101280.13;5120917;27;20449;-57
2023/03/21 06:10:03;;;;;;;19.73;14.05;;;;;;;9.10;96.11;101282.41;5105867;27;20106;-57
2023/03/21 06:12:29;;;;;;;19.27;13.38;;;;;;;9.12;95.64;101279.66;5113384;27;20450;-56
2023/03/21 06:14:55;;;;;;;18.60;13.18;;;;;;;9.17;94.83;101286.47;5112397;28;20039;-57
2023/03/21 06:17:25;;;;;;;18.45;12.30;;;;;;;9.14;95.00;101289.28;5128377;27;20745;-56
2023/03/21 06:19:53;;;;;;;20.33;13.25;;;;;;;9.16;94.65;101291.88;5102529;27;20092;-57
2023/03/21 06:22:19;;;;;;;21.05;13.32;;;;;;;9.17;94.85;101289.13;5096227;28;20486;-56
2023/03/21 06:24:44;;;;;;;21.23;12.25;;;;;;;9.19;94.58;101297.88;5120095;27;20109;-57
2023/03/21 06:27:09;;;;;;;18.45;12.50;;;;;;;9.20;94.23;101296.06;5133813;27;20061;-56
2023/03/21 06:29:35;;;;;;;20.05;12.27;;;;;;;9.21;94.57;101292.50;5124424;27;20043;-56
2023/03/21 06:32:00;;;;;;;18.45;12.25;;;;;;;9.23;94.57;101298.56;5119973;27;20023;-57
2023/03/21 06:34:26;;;;;;;17.00;12.38;;;;;;;9.23;94.98;101299.41;5120694;27;20038;-56
2023/03/21 06:36:53;;;;;;;16.73;11.38;;;;;;;9.26;95.01;101301.06;5127801;27;20538;-56
2023/03/21 06:39:18;;;;;;;17.30;11.65;;;;;;;9.28;95.20;101307.16;5136244;27;20128;-57
2023/03/21 06:41:46;;;;;;;17.55;12.77;;;;;;;9.27;95.96;101303.66;5129350;27;20110;-57
2023/03/21 06:44:12;;;;;;;18.33;11.32;;;;;;;9.28;96.34;101302.72;5140611;27;20031;-57
2023/03/21 06:46:37;;;;;;;19.85;11.48;;;;;;;9.26;96.59;101301.06;5114898;27;20023;-57
2023/03/21 06:49:03;;;;;;;22.63;12.70;;;;;;;9.25;97.44;101297.56;5127737;27;20027;-57
2023/03/21 06:51:28;;;;;;;19.38;12.00;;;;;;;9.28;96.77;101302.72;5132831;27;20023;-57
2023/03/21 06:53:54;;;;;;;17.98;11.93;;;;;;;9.27;98.06;101298.34;5127216;27;20039;-57
2023/03/21 06:56:19;;;;;;;21.48;11.40;;;;;;;9.24;98.16;101297.66;5125039;27;20759;-57
2023/03/21 06:58:45;;;;;;;20.65;12.77;;;;;;;9.26;98.95;101304.56;5126255;27;20050;-57
2023/03/21 07:01:11;;;;;;;18.08;11.20;;;;;;;9.25;98.50;101310.81;5111640;27;20111;-57
2023/03/21 07:03:36;;;;;;;17.00;11.38;;;;;;;9.23;99.63;101312.69;5099083;27;20027;-56
2023/03/21 07:06:13;;;;;;;20.08;11.70;;;;;;;9.24;100.00;101316.22;5124682;27;20042;-56
2023/03/21 07:08:39;;;;;;;19.42;11.13;;;;;;;9.21;100.00;101311.94;5125076;27;20023;-56
2023/03/21 07:11:05;;;;;;;19.35;11.70;;;;;;;9.21;100.00;101311.06;5129159;27;20080;-57
2023/03/21 07:13:34;;;;;;;17.08;11.25;;;;;;;9.22;100.00;101312.78;5122462;27;20035;-57
2023/03/21 07:15:59;;;;;;;22.58;11.32;;;;;;;9.24;100.00;101318.88;5124426;27;20108;-57
2023/03/21 07:18:25;;;;;;;18.52;10.90;;;;;;;9.27;100.00;101319.59;5124049;27;20474;-57
2023/03/21 07:20:51;;;;;;;22.33;12.30;;;;;;;9.29;100.00;101324.78;5126992;27;20038;-57
2023/03/21 07:23:21;;;;;;;18.15;12.30;;;;;;;9.26;100.00;101323.16;5125661;27;20486;-57
2023/03/21 07:25:48;;;;;;;20.63;13.02;;;;;;;9.26;100.00;101319.66;5124511;27;20038;-57
2023/03/21 07:28:15;;;;;;;19.65;13.00;;;;;;;9.26;100.00;101328.47;5127192;27;20099;-56
2023/03/21 07:30:41;;;;;;;17.80;12.50;;;;;;;9.30;100.00;101323.88;5128446;27;20119;-56
2023/03/21 07:33:09;;;;;;;23.95;14.32;;;;;;;9.30;100.00;101323.88;5114653;28;20020;-56
2023/03/21 07:35:36;;;;;;;23.45;14.45;;;;;;;9.27;100.00;101322.25;5095392;27;20121;-57
2023/03/21 07:38:05;;;;;;;20.98;14.07;;;;;;;9.27;100.00;101332.00;5102350;27;20055;-57
2023/03/21 07:40:31;;;;;;;23.75;14.70;;;;;;;9.24;100.00;101313.56;5131619;27;20023;-57
2023/03/21 07:42:57;;;;;;;20.27;14.15;;;;;;;9.23;100.00;101322.44;5102962;27;20516;-57
2023/03/21 07:45:24;;;;;;;21.25;14.60;;;;;;;9.23;100.00;101312.69;5125050;27;20027;-57
2023/03/21 07:47:50;;;;;;;29.40;14.80;;;;;;;9.24;100.00;101316.22;5100227;27;20397;-56
2023/03/21 07:50:16;;;;;;;25.05;15.63;;;;;;;9.20;100.00;101301.38;5132005;27;20122;-56
2023/03/21 07:52:42;;;;;;;20.63;14.65;;;;;;;9.24;100.00;101303.81;5098375;27;20481;-57
2023/03/21 07:55:08;;;;;;;22.83;15.77;;;;;;;9.21;100.00;101303.13;5101583;27;20171;-57
2023/03/21 07:57:33;;;;;;;23.98;14.73;;;;;;;9.23;100.00;101302.06;5095884;28;20042;-56
2023/03/21 07:59:59;;;;;;;23.30;15.30;;;;;;;9.25;100.00;101300.22;5109565;27;20030;-57
2023/03/21 08:02:24;;;;;;;23.50;15.48;;;;;;;9.24;100.00;101284.38;5122636;27;20031;-57
2023/03/21 08:04:50;;;;;;;20.08;14.73;;;;;;;9.33;100.00;101289.22;5115990;27;20543;-57
2023/03/21 08:07:15;;;;;;;24.98;16.15;;;;;;;9.38;100.00;101286.31;5124878;27;20118;-57
2023/03/21 08:09:42;;;;;;;20.95;16.00;;;;;;;9.38;100.00;101278.34;5127886;27;20019;-57
2023/03/21 08:12:10;;;;;;;29.92;15.48;;;;;;;9.44;100.00;101278.91;5093875;27;20030;-57
2023/03/21 08:14:36;;;;;;;20.23;16.20;;;;;;;9.42;100.00;101282.59;5131823;27;20098;-57
2023/03/21 08:17:03;;;;;;;20.65;14.77;;;;;;;9.44;100.00;101278.03;5121425;27;20114;-57
2023/03/21 08:19:29;;;;;;;26.70;16.55;;;;;;;9.42;100.00;101267.50;5124314;27;20106;-57
2023/03/21 08:21:58;;;;;;;24.55;15.85;;;;;;;9.42;100.00;101256.88;5128693;27;20054;-57
2023/03/21 08:24:25;;;;;;;25.10;16.55;;;;;;;9.38;100.00;101267.72;5126999;27;20049;-57
2023/03/21 08:26:53;;;;;;;23.20;16.08;;;;;;;9.36;100.00;101261.66;5145824;27;20027;-57
2023/03/21 08:29:20;;;;;;;21.27;14.32;;;;;;;9.37;100.00;101255.41;5134260;27;20034;-57
2023/03/21 08:31:48;;;;;;;21.95;15.13;;;;;;;9.34;100.00;101259.06;5133586;27;20034;-57
2023/03/21 08:34:14;;;;;;;21.05;14.40;;;;;;;9.41;100.00;101254.28;5126368;27;20042;-57
2023/03/21 08:36:39;;;;;;;19.50;14.60;;;;;;;9.40;100.00;101256.09;5154517;27;20393;-56
2023/03/21 08:39:05;;;;;;;20.23;13.88;;;;;;;9.41;100.00;101260.50;5154010;27;20034;-57
2023/03/21 08:41:31;;;;;;;21.65;13.68;;;;;;;9.40;100.00;101250.78;5117986;27;20031;-57
2023/03/21 08:43:57;;;;;;;20.75;13.23;;;;;;;9.40;100.00;101253.44;5138387;27;20018;-57
2023/03/21 08:46:22;;;;;;;18.35;12.20;;;;;;;9.37;100.00;101250.94;5150164;27;20071;-57
2023/03/21 08:48:48;;;;;;;16.23;12.52;;;;;;;9.40;100.00;101255.25;5143976;27;20030;-57
2023/03/21 08:51:13;;;;;;;20.92;13.00;;;;;;;9.33;100.00;101239.63;5139076;27;20019;-57
2023/03/21 08:53:40;;;;;;;15.02;12.75;;;;;;;9.42;100.00;101245.41;5135812;27;20124;-57
2023/03/21 08:56:06;;;;;;;18.38;12.25;;;;;;;9.47;100.00;101241.59;5135897;27;20212;-57
2023/03/21 08:58:32;;;;;;;18.27;12.45;;;;;;;9.51;100.00;101236.97;5138478;27;20029;-57
2023/03/21 09:00:57;;;;;;;16.42;12.52;;;;;;;9.50;100.00;101230.81;5111856;27;20027;-57
2023/03/21 09:03:22;;;;;;;18.73;13.10;;;;;;;9.54;100.00;101234.16;5132561;27;20050;-57
2023/03/21 09:05:48;;;;;;;19.35;13.52;;;;;;;9.59;100.00;101240.09;5113652;27;20082;-57
2023/03/21 09:08:14;;;;;;;19.58;13.70;;;;;;;9.60;100.00;101236.47;5119634;27;20092;-57
2023/03/21 09:10:39;;;;;;;17.88;13.05;;;;;;;9.63;100.00;101228.34;5126738;27;21775;-57
2023/03/21 09:13:05;;;;;;;17.50;13.63;;;;;;;9.67;100.00;101235.19;5141074;27;20027;-57
2023/03/21 09:15:30;;;;;;;19.23;14.05;;;;;;;9.67;100.00;101239.66;5132180;27;20386;-57
2023/03/21 09:18:11;;;;;;;18.23;12.25;;;;;;;9.70;100.00;101237.69;5133092;27;20398;-57
2023/03/21 09:20:42;;;;;;;18.63;12.68;;;;;;;9.72;100.00;101229.66;5131313;27;20027;-57
2023/03/21 09:23:13;;;;;;;18.60;13.30;;;;;;;9.72;100.00;101227.00;5136051;27;20510;-57
2023/03/21 09:25:40;;;;;;;21.10;12.98;;;;;;;9.69;100.00;101228.03;5132221;27;20050;-57
2023/03/21 09:28:06;;;;;;;16.27;12.43;;;;;;;9.77;100.00;101230.28;5132948;27;20027;-57
2023/03/21 09:30:34;;;;;;;20.30;12.77;;;;;;;9.80;100.00;101223.94;5112092;27;20286;-57
2023/03/21 09:33:11;;;;;;;19.52;12.50;;;;;;;9.84;100.00;101230.81;5115806;27;20481;-57
2023/03/21 09:35:37;;;;;;;18.02;13.18;;;;;;;9.85;100.00;101219.22;5139345;27;20046;-57
2023/03/21 09:38:04;;;;;;;20.73;12.38;;;;;;;9.88;100.00;101219.06;5113599;28;20500;-57
2023/03/21 09:40:55;;;;;;;15.50;11.00;;;;;;;9.94;100.00;101210.75;5110832;27;20058;-57
2023/03/21 09:43:30;;;;;;;11.90;10.32;;;;;;;9.94;100.00;101216.94;5132579;27;20038;-57
2023/03/21 09:46:24;;;;;;;15.05;11.18;;;;;;;10.01;100.00;101228.09;5132221;27;20473;-57
2023/03/21 09:48:56;;;;;;;15.10;11.43;;;;;;;10.05;100.00;101216.34;5111635;27;20098;-57
2023/03/21 09:51:25;;;;;;;19.73;11.40;;;;;;;10.10;99.84;101210.78;5110678;27;20030;-57
2023/03/21 09:53:54;;;;;;;19.20;12.57;;;;;;;10.12;99.15;101211.56;5100556;28;20031;-57
2023/03/21 09:56:20;;;;;;;16.67;11.13;;;;;;;10.19;98.77;101208.47;5124409;27;20034;-57
2023/03/21 09:58:54;;;;;;;14.55;10.40;;;;;;;10.18;96.81;101201.44;5120485;27;20027;-57
2023/03/21 10:01:28;;;;;;;15.13;10.65;;;;;;;10.24;97.20;101202.91;5133374;27;20038;-58
2023/03/21 10:03:55;;;;;;;17.13;10.48;;;;;;;10.33;97.00;101193.59;5127588;27;20027;-57
2023/03/21 10:06:27;;;;;;;13.60;9.95;;;;;;;10.37;96.48;101188.00;5129421;27;20114;-57
2023/03/21 10:08:57;;;;;;;14.27;9.85;;;;;;;10.36;97.07;101185.44;5135384;27;20404;-57
2023/03/21 10:11:39;;;;;;;16.00;10.90;;;;;;;10.43;96.66;101192.09;5113803;27;20023;-57
2023/03/21 10:14:14;;;;;;;16.30;10.70;;;;;;;10.48;96.02;101189.19;5114678;28;20027;-58
2023/03/21 10:16:43;;;;;;;13.90;10.50;;;;;;;10.51;96.03;101181.91;5115611;28;20397;-57
2023/03/21 10:19:14;;;;;;;14.00;10.53;;;;;;;10.61;95.12;101180.41;5116260;28;20027;-58
2023/03/21 10:21:42;;;;;;;15.52;10.05;;;;;;;10.52;95.28;101159.66;5118206;27;20502;-58
2023/03/21 10:24:18;;;;;;;15.13;9.73;;;;;;;10.73;94.15;101178.84;5138680;27;20497;-57
2023/03/21 10:26:45;;;;;;;17.67;10.35;;;;;;;10.81;93.64;101181.91;5112383;27;20031;-57
2023/03/21 10:29:15;;;;;;;15.15;9.23;;;;;;;10.91;94.31;101183.09;5136710;27;20021;-57
2023/03/21 10:31:43;;;;;;;14.32;10.63;;;;;;;10.97;92.44;101181.00;5117732;27;20044;-57
2023/03/21 10:34:17;;;;;;;14.25;9.05;;;;;;;10.98;90.91;101178.25;5149113;27;20519;-57
2023/03/21 10:36:43;;;;;;;16.75;9.77;;;;;;;11.06;91.73;101181.34;5157073;27;20027;-58
2023/03/21 10:39:19;;;;;;;16.20;9.65;;;;;;;11.14;91.20;101165.72;5138092;27;20025;-58
2023/03/21 10:41:45;;;;;;;12.55;9.30;;;;;;;11.23;91.00;101168.78;5157377;27;20026;-57
2023/03/21 10:44:16;;;;;;;12.57;9.45;;;;;;;11.32;90.05;101187.75;5147172;27;20424;-57
2023/03/21 10:46:54;;;;;;;16.52;9.00;;;;;;;11.36;90.10;101189.25;5154454;27;20023;-57
2023/03/21 10:49:20;;;;;;;13.77;9.20;;;;;;;11.40;88.78;101189.09;5156787;27;20105;-57
2023/03/21 10:51:50;;;;;;;9.52;8.38;;;;;;;11.40;87.48;101189.94;5156873;27;20050;-57
2023/03/21 10:54:20;;;;;;;13.93;9.65;;;;;;;11.43;87.83;101192.41;5138373;27;20033;-57
2023/03/21 10:56:59;;;;;;;14.75;9.32;;;;;;;11.52;88.32;101185.66;5139187;27;20108;-57
2023/03/21 10:59:29;;;;;;;12.82;9.20;;;;;;;11.71;89.13;101167.59;5135680;27;20084;-58
2023/03/21 11:01:56;;;;;;;13.40;9.43;;;;;;;11.92;87.71;101176.06;5118609;27;20019;-58
2023/03/21 11:04:28;;;;;;;13.63;8.57;;;;;;;11.94;84.33;101165.28;5135941;27;20538;-58
2023/03/21 11:06:58;;;;;;;13.68;8.05;;;;;;;11.96;84.04;101166.91;5135734;27;20100;-58
2023/03/21 11:09:25;;;;;;;11.15;8.18;;;;;;;11.94;83.18;101165.28;5135819;27;20023;-57
2023/03/21 11:12:01;;;;;;;13.00;8.70;;;;;;;11.94;83.08;101162.63;5101647;27;20423;-57
2023/03/21 11:14:41;;;;;;;13.40;8.70;;;;;;;11.94;83.11;101174.16;5114564;28;20024;-58
2023/03/21 11:17:32;;;;;;;12.45;8.32;;;;;;;12.00;83.50;101176.44;5115183;28;20027;-58
2023/03/21 11:20:00;;;;;;;9.73;7.88;;;;;;;11.97;81.35;101183.75;5096817;28;20023;-57
2023/03/21 11:22:35;;;;;;;12.18;7.35;;;;;;;11.88;81.69;101177.19;5116520;27;20478;-57